Crown Topaz — 3FAS9 — position and weather

sailwx.info

Track history (hours):
 
Tides and Currents Weather Stations Pressure Air Temp Water Temp Dewpoint Dewpoint Depression Visibility Wind Speed Wind Dir Waves Ship Positions

Crown Topaz

Last reported at 2014-Oct-01 11:33 UTC. Time now 2014-Oct-01 20:23 UTC.
Position N 49°27' E 000°23'.

Length 152 m; draft 6.8 m.

Type: Cargo ship. MMSI: 357144000.

Date/timePositionNaut miles runAvg speedWind from/ knotsBaromVisibWave heightAir tempDewpointWater temp
2014-Oct-01 11:33N 49°27' E 000°23'1413.6
2014-Oct-01 10:33N 49°27' E 000°02'1211.8
2014-Oct-01 09:34N 49°37' W 000°09'5518.3
2014-Oct-01 06:34N 50°30' E 000°11'2019.8
2014-Oct-01 05:34N 50°37' E 000°40'1919.0
2014-Oct-01 04:33N 50°47' E 001°05'1717.5
2014-Oct-01 03:34N 50°59' E 001°25'1717.4
2014-Oct-01 02:33N 51°12' E 001°44'1717.3
2014-Oct-01 01:33N 51°24' E 002°04'2316.8
2014-Oct-01 00:10N 51°22' E 002°41'1413.4
2014-Sep-30 23:08N 51°25' E 003°03'1017.2
2014-Sep-30 22:33N 51°24' E 003°19'1414.4
2014-Sep-30 21:34N 51°25' E 003°42'1110.6
2014-Sep-30 20:33N 51°26' E 003°59'1110.5
2014-Sep-30 19:34N 51°21' E 004°14'2 2.1
2014-Sep-30 18:34N 51°21' E 004°17'0 0.1
2014-Sep-30 17:34N 51°21' E 004°17'5 4.6
2014-Sep-30 16:33N 51°16' E 004°20'2 1.6
2014-Sep-30 15:32N 51°16' E 004°23'0 0.0
2014-Sep-30 14:32N 51°16' E 004°23'0 0.0
2014-Sep-30 13:32N 51°16' E 004°23'0 0.0
2014-Sep-30 12:32N 51°16' E 004°23'0 0.0
2014-Sep-30 11:32N 51°16' E 004°23'0 0.0
2014-Sep-30 10:32N 51°16' E 004°23'0 0.0
2014-Sep-30 09:32N 51°16' E 004°23'0 0.0
2014-Sep-30 08:32N 51°16' E 004°23'0 0.0
2014-Sep-30 07:32N 51°16' E 004°23'0 0.0
2014-Sep-30 06:32N 51°16' E 004°23'0 0.0
2014-Sep-30 05:32N 51°16' E 004°23'0 0.0
2014-Sep-30 04:32N 51°16' E 004°23'0 0.0
2014-Sep-30 03:32N 51°16' E 004°23'0 0.0
2014-Sep-30 02:32N 51°16' E 004°23'0 0.0
2014-Sep-30 01:32N 51°16' E 004°23'0 0.0
2014-Sep-30 00:32N 51°16' E 004°23'0 0.0
2014-Sep-29 23:32N 51°16' E 004°23'0 0.0
2014-Sep-29 22:32N 51°16' E 004°23'0 0.0
2014-Sep-29 21:32N 51°16' E 004°23'0 0.0
2014-Sep-29 20:32N 51°16' E 004°23'0 0.0
2014-Sep-29 19:32N 51°16' E 004°23'0 0.0
2014-Sep-29 18:32N 51°16' E 004°23'0 0.0
2014-Sep-29 17:32N 51°16' E 004°23'0 0.0
2014-Sep-29 16:32N 51°16' E 004°23'0 0.0
2014-Sep-29 15:32N 51°16' E 004°23'0 0.0
2014-Sep-29 14:32N 51°16' E 004°23'0 0.0
2014-Sep-29 13:32N 51°16' E 004°23'2 2.5
2014-Sep-29 12:33N 51°17' E 004°20'4 3.6
2014-Sep-29 11:33N 51°21' E 004°17'0 0.1
2014-Sep-29 10:34N 51°21' E 004°17'4 4.3
2014-Sep-29 09:34N 51°24' E 004°12'8 8.3
2014-Sep-29 08:33N 51°26' E 003°60'10 9.9
2014-Sep-29 07:34N 51°22' E 003°45'9 8.7
2014-Sep-29 06:34N 51°25' E 003°33'1111.1
2014-Sep-29 05:34N 51°25' E 003°15'1312.7
2014-Sep-29 04:33N 51°22' E 002°55'1111.1
2014-Sep-29 03:33N 51°22' E 002°37'6 6.4
2014-Sep-29 02:33N 51°21' E 002°27'1111.3
2014-Sep-29 01:33N 51°16' E 002°11'1616.2
2014-Sep-29 00:34N 51°07' E 001°49'1515.0
2014-Sep-28 23:33N 50°57' E 001°33'2017.9
2014-Sep-28 22:27N 50°39' E 001°19'1718.1
2014-Sep-28 21:29N 50°30' E 000°55'1915.1
2014-Sep-28 20:13N 50°26' E 000°26'1614.4
2014-Sep-28 19:05N 50°22' E 000°01'713.7
2014-Sep-28 18:33N 50°24' W 000°09'1413.9
2014-Sep-28 17:32N 50°30' W 000°29'1313.6
2014-Sep-28 16:34N 50°37' W 000°48'1211.8
2014-Sep-28 15:33N 50°44' W 001°03'5 5.1
2014-Sep-28 14:32N 50°49' W 001°06'0 0.0
2014-Sep-28 13:32N 50°49' W 001°06'0 0.0
2014-Sep-28 12:32N 50°49' W 001°06'0 0.0
2014-Sep-28 11:32N 50°49' W 001°06'0 0.0
2014-Sep-28 10:32N 50°49' W 001°06'0 0.0
2014-Sep-28 09:32N 50°49' W 001°06'0 0.0
2014-Sep-28 08:32N 50°49' W 001°06'0 0.0
2014-Sep-28 07:32N 50°49' W 001°06'0 0.0
2014-Sep-28 06:29N 50°49' W 001°06'0 0.0
2014-Sep-28 05:32N 50°49' W 001°06'0 0.0
2014-Sep-28 04:29N 50°49' W 001°06'0 0.0
2014-Sep-28 03:32N 50°49' W 001°06'0 0.0
2014-Sep-28 02:32N 50°49' W 001°06'0 0.0
2014-Sep-28 01:29N 50°49' W 001°06'0 0.0
2014-Sep-28 00:29N 50°49' W 001°06'0 0.0
2014-Sep-27 23:29N 50°49' W 001°06'0 0.0
2014-Sep-27 22:32N 50°49' W 001°06'0 0.0
2014-Sep-27 21:32N 50°49' W 001°06'0 0.0
2014-Sep-27 20:29N 50°49' W 001°06'0 0.0
2014-Sep-27 19:32N 50°49' W 001°06'0 0.0
2014-Sep-27 18:32N 50°49' W 001°06'0 0.0
2014-Sep-27 17:32N 50°49' W 001°06'0 0.0
2014-Sep-27 16:32N 50°49' W 001°06'0 0.0
2014-Sep-27 15:32N 50°49' W 001°06'0 0.0
2014-Sep-27 14:33N 50°49' W 001°06'4 4.4
2014-Sep-27 13:33N 50°44' W 001°04'7 6.8
2014-Sep-27 12:33N 50°38' W 001°00'7 7.2
2014-Sep-27 11:33N 50°31' W 001°03'1514.5
2014-Sep-27 10:32N 50°26' W 001°25'  
Track history (hours):
 
Tides and Currents Weather Stations Pressure Air Temp Water Temp Dewpoint Dewpoint Depression Visibility Wind Speed Wind Dir Waves Ship Positions

Crown Topaz

Last reported at 2014-Oct-01 11:33 UTC. Time now 2014-Oct-01 20:23 UTC.
Position N 49°27' E 000°23'.

Length 152 m; draft 6.8 m.

Type: Cargo ship. MMSI: 357144000.

Date/timePositionNaut miles runAvg speedWind from/ knotsBaromVisibWave heightAir tempDewpointWater temp
2014-Oct-01 11:33N 49°27' E 000°23'1413.6
2014-Oct-01 10:33N 49°27' E 000°02'1211.8
2014-Oct-01 09:34N 49°37' W 000°09'5518.3
2014-Oct-01 06:34N 50°30' E 000°11'2019.8
2014-Oct-01 05:34N 50°37' E 000°40'1919.0
2014-Oct-01 04:33N 50°47' E 001°05'1717.5
2014-Oct-01 03:34N 50°59' E 001°25'1717.4
2014-Oct-01 02:33N 51°12' E 001°44'1717.3
2014-Oct-01 01:33N 51°24' E 002°04'2316.8
2014-Oct-01 00:10N 51°22' E 002°41'1413.4
2014-Sep-30 23:08N 51°25' E 003°03'1017.2
2014-Sep-30 22:33N 51°24' E 003°19'1414.4
2014-Sep-30 21:34N 51°25' E 003°42'1110.6
2014-Sep-30 20:33N 51°26' E 003°59'1110.5
2014-Sep-30 19:34N 51°21' E 004°14'2 2.1
2014-Sep-30 18:34N 51°21' E 004°17'0 0.1
2014-Sep-30 17:34N 51°21' E 004°17'5 4.6
2014-Sep-30 16:33N 51°16' E 004°20'2 1.6
2014-Sep-30 15:32N 51°16' E 004°23'0 0.0
2014-Sep-30 14:32N 51°16' E 004°23'0 0.0
2014-Sep-30 13:32N 51°16' E 004°23'0 0.0
2014-Sep-30 12:32N 51°16' E 004°23'0 0.0
2014-Sep-30 11:32N 51°16' E 004°23'0 0.0
2014-Sep-30 10:32N 51°16' E 004°23'0 0.0
2014-Sep-30 09:32N 51°16' E 004°23'0 0.0
2014-Sep-30 08:32N 51°16' E 004°23'0 0.0
2014-Sep-30 07:32N 51°16' E 004°23'0 0.0
2014-Sep-30 06:32N 51°16' E 004°23'0 0.0
2014-Sep-30 05:32N 51°16' E 004°23'0 0.0
2014-Sep-30 04:32N 51°16' E 004°23'0 0.0
2014-Sep-30 03:32N 51°16' E 004°23'0 0.0
2014-Sep-30 02:32N 51°16' E 004°23'0 0.0
2014-Sep-30 01:32N 51°16' E 004°23'0 0.0
2014-Sep-30 00:32N 51°16' E 004°23'0 0.0
2014-Sep-29 23:32N 51°16' E 004°23'0 0.0
2014-Sep-29 22:32N 51°16' E 004°23'0 0.0
2014-Sep-29 21:32N 51°16' E 004°23'0 0.0
2014-Sep-29 20:32N 51°16' E 004°23'0 0.0
2014-Sep-29 19:32N 51°16' E 004°23'0 0.0
2014-Sep-29 18:32N 51°16' E 004°23'0 0.0
2014-Sep-29 17:32N 51°16' E 004°23'0 0.0
2014-Sep-29 16:32N 51°16' E 004°23'0 0.0
2014-Sep-29 15:32N 51°16' E 004°23'0 0.0
2014-Sep-29 14:32N 51°16' E 004°23'0 0.0
2014-Sep-29 13:32N 51°16' E 004°23'2 2.5
2014-Sep-29 12:33N 51°17' E 004°20'4 3.6
2014-Sep-29 11:33N 51°21' E 004°17'0 0.1
2014-Sep-29 10:34N 51°21' E 004°17'4 4.3
2014-Sep-29 09:34N 51°24' E 004°12'8 8.3
2014-Sep-29 08:33N 51°26' E 003°60'10 9.9
2014-Sep-29 07:34N 51°22' E 003°45'9 8.7
2014-Sep-29 06:34N 51°25' E 003°33'1111.1
2014-Sep-29 05:34N 51°25' E 003°15'1312.7
2014-Sep-29 04:33N 51°22' E 002°55'1111.1
2014-Sep-29 03:33N 51°22' E 002°37'6 6.4
2014-Sep-29 02:33N 51°21' E 002°27'1111.3
2014-Sep-29 01:33N 51°16' E 002°11'1616.2
2014-Sep-29 00:34N 51°07' E 001°49'1515.0
2014-Sep-28 23:33N 50°57' E 001°33'2017.9
2014-Sep-28 22:27N 50°39' E 001°19'1718.1
2014-Sep-28 21:29N 50°30' E 000°55'1915.1
2014-Sep-28 20:13N 50°26' E 000°26'1614.4
2014-Sep-28 19:05N 50°22' E 000°01'713.7
2014-Sep-28 18:33N 50°24' W 000°09'1413.9
2014-Sep-28 17:32N 50°30' W 000°29'1313.6
2014-Sep-28 16:34N 50°37' W 000°48'1211.8
2014-Sep-28 15:33N 50°44' W 001°03'5 5.1
2014-Sep-28 14:32N 50°49' W 001°06'0 0.0
2014-Sep-28 13:32N 50°49' W 001°06'0 0.0
2014-Sep-28 12:32N 50°49' W 001°06'0 0.0
2014-Sep-28 11:32N 50°49' W 001°06'0 0.0
2014-Sep-28 10:32N 50°49' W 001°06'0 0.0
2014-Sep-28 09:32N 50°49' W 001°06'0 0.0
2014-Sep-28 08:32N 50°49' W 001°06'0 0.0
2014-Sep-28 07:32N 50°49' W 001°06'0 0.0
2014-Sep-28 06:29N 50°49' W 001°06'0 0.0
2014-Sep-28 05:32N 50°49' W 001°06'0 0.0
2014-Sep-28 04:29N 50°49' W 001°06'0 0.0
2014-Sep-28 03:32N 50°49' W 001°06'0 0.0
2014-Sep-28 02:32N 50°49' W 001°06'0 0.0
2014-Sep-28 01:29N 50°49' W 001°06'0 0.0
2014-Sep-28 00:29N 50°49' W 001°06'0 0.0
2014-Sep-27 23:29N 50°49' W 001°06'0 0.0
2014-Sep-27 22:32N 50°49' W 001°06'0 0.0
2014-Sep-27 21:32N 50°49' W 001°06'0 0.0
2014-Sep-27 20:29N 50°49' W 001°06'0 0.0
2014-Sep-27 19:32N 50°49' W 001°06'0 0.0
2014-Sep-27 18:32N 50°49' W 001°06'0 0.0
2014-Sep-27 17:32N 50°49' W 001°06'0 0.0
2014-Sep-27 16:32N 50°49' W 001°06'0 0.0
2014-Sep-27 15:32N 50°49' W 001°06'0 0.0
2014-Sep-27 14:33N 50°49' W 001°06'4 4.4
2014-Sep-27 13:33N 50°44' W 001°04'7 6.8
2014-Sep-27 12:33N 50°38' W 001°00'7 7.2
2014-Sep-27 11:33N 50°31' W 001°03'1514.5
2014-Sep-27 10:32N 50°26' W 001°25'  

Dump ship's entire track history